createdAt,value
2019-04-26T00:02:19.470Z,54.43
2019-04-26T00:04:52.837Z,55.57
2019-04-26T00:07:26.059Z,53.67
2019-04-26T00:10:00.655Z,46.90
2019-04-26T00:12:39.305Z,52.43
2019-04-26T00:15:29.900Z,49.20
2019-04-26T00:18:04.691Z,49.20
2019-04-26T00:20:37.500Z,44.83
2019-04-26T00:23:10.769Z,41.63
2019-04-26T00:25:44.327Z,53.40
2019-04-26T00:28:17.175Z,49.50
2019-04-26T00:30:49.936Z,51.07
2019-04-26T00:33:22.796Z,48.47
2019-04-26T00:35:55.660Z,52.47
2019-04-26T00:38:28.360Z,52.40
2019-04-26T00:41:01.627Z,49.43
2019-04-26T00:43:34.315Z,51.00
2019-04-26T00:46:08.515Z,45.10
2019-04-26T00:48:42.305Z,49.53
2019-04-26T00:51:17.299Z,51.97
2019-04-26T00:53:51.495Z,41.30
2019-04-26T00:56:25.390Z,48.03
2019-04-26T00:58:58.245Z,49.00
2019-04-26T01:01:32.720Z,48.83
2019-04-26T01:04:05.656Z,48.13
2019-04-26T01:06:40.033Z,43.23
2019-04-26T01:09:12.750Z,50.13
2019-04-26T01:11:45.815Z,45.93
2019-04-26T01:14:18.464Z,48.57
2019-04-26T01:16:51.270Z,55.23
2019-04-26T01:19:25.295Z,50.67
2019-04-26T01:22:05.038Z,45.80
2019-04-26T01:24:39.410Z,62.60
2019-04-26T01:27:15.890Z,46.47
2019-04-26T01:29:51.015Z,51.13
2019-04-26T01:32:24.136Z,49.00
2019-04-26T01:34:58.176Z,44.10
2019-04-26T01:37:32.330Z,45.87
2019-04-26T01:40:09.265Z,47.83
2019-04-26T01:42:49.281Z,45.27
2019-04-26T01:45:35.215Z,48.53
2019-04-26T01:48:32.882Z,44.73
2019-04-26T01:51:05.690Z,49.70
2019-04-26T01:53:38.891Z,46.20
2019-04-26T01:56:11.725Z,54.30
2019-04-26T01:58:46.829Z,41.07
2019-04-26T02:01:33.071Z,57.50
2019-04-26T02:04:05.850Z,48.57
2019-04-26T02:06:38.461Z,52.03
2019-04-26T02:09:11.874Z,46.70
2019-04-26T02:11:45.085Z,44.37
2019-04-26T02:14:17.845Z,49.50
2019-04-26T02:16:50.795Z,53.97
2019-04-26T02:19:24.740Z,44.30
2019-04-26T02:22:05.985Z,45.27
2019-04-26T02:24:40.336Z,44.70
2019-04-26T02:27:17.619Z,54.50
2019-04-26T02:29:50.725Z,43.87
2019-04-26T02:32:25.282Z,45.30
2019-04-26T02:34:58.625Z,47.30
2019-04-26T02:37:34.031Z,49.47
2019-04-26T02:40:11.044Z,43.57
2019-04-26T02:42:45.072Z,40.07
2019-04-26T02:45:32.736Z,49.27
2019-04-26T02:48:22.253Z,47.40
2019-04-26T02:51:23.920Z,41.10
2019-04-26T02:54:07.261Z,48.10
2019-04-26T02:56:45.357Z,52.30
2019-04-26T02:59:38.735Z,42.63
2019-04-26T03:02:16.449Z,50.10
2019-04-26T03:04:53.942Z,45.03
2019-04-26T03:07:32.096Z,49.17
2019-04-26T03:10:06.847Z,48.20
2019-04-26T03:12:43.201Z,52.10
2019-04-26T03:15:27.121Z,47.73
2019-04-26T03:18:24.952Z,45.83
2019-04-26T03:21:23.651Z,50.40
2019-04-26T03:24:16.801Z,45.23
2019-04-26T03:27:35.232Z,54.97
2019-04-26T03:30:22.804Z,49.03
2019-04-26T03:33:09.219Z,52.33
2019-04-26T03:36:18.642Z,52.40
2019-04-26T03:39:11.077Z,48.03
2019-04-26T03:42:23.550Z,45.33
2019-04-26T03:45:44.696Z,51.00
2019-04-26T03:48:52.341Z,50.47
2019-04-26T03:51:47.491Z,55.60
2019-04-26T03:54:29.621Z,58.90
2019-04-26T03:57:24.890Z,53.17
2019-04-26T04:00:20.104Z,61.77
2019-04-26T04:03:16.436Z,50.30
2019-04-26T04:05:54.150Z,45.93
2019-04-26T04:08:40.778Z,62.83
2019-04-26T04:11:21.565Z,43.80
2019-04-26T04:14:07.156Z,46.17
2019-04-26T04:16:57.887Z,50.87
2019-04-26T04:20:13.697Z,44.07
2019-04-26T04:22:57.400Z,64.13
2019-04-26T04:25:39.277Z,61.07
2019-04-26T04:28:35.537Z,187.77
2019-04-26T04:31:34.169Z,83.57
2019-04-26T04:34:11.710Z,74.53
2019-04-26T04:36:51.424Z,50.30
2019-04-26T04:39:40.860Z,57.23
2019-04-26T04:43:02.241Z,49.63
2019-04-26T04:46:20.966Z,54.40
2019-04-26T04:49:14.673Z,52.50
2019-04-26T04:52:12.990Z,54.53
2019-04-26T04:55:06.682Z,53.53
2019-04-26T04:57:53.153Z,42.03
2019-04-26T05:01:15.605Z,39.87
2019-04-26T05:04:24.155Z,52.63
2019-04-26T05:07:08.160Z,35.60
2019-04-26T05:10:15.215Z,44.70
2019-04-26T05:13:16.574Z,37.13
2019-04-26T05:16:01.535Z,42.43
2019-04-26T05:19:08.508Z,48.70
2019-04-26T05:21:57.785Z,37.80
2019-04-26T05:25:09.385Z,40.60
2019-04-26T05:28:15.240Z,54.63
2019-04-26T05:31:08.540Z,35.67
2019-04-26T05:34:17.875Z,42.77
2019-04-26T05:37:28.020Z,42.17
2019-04-26T05:40:10.700Z,39.88
2019-04-26T05:43:21.620Z,52.40
2019-04-26T05:46:22.240Z,42.77
2019-04-26T05:49:24.381Z,42.30
2019-04-26T05:52:28.549Z,52.03
2019-04-26T05:55:52.310Z,41.13
2019-04-26T05:58:47.630Z,41.70
2019-04-26T06:01:52.067Z,45.13
2019-04-26T06:04:53.417Z,40.27
2019-04-26T06:07:58.526Z,49.37
2019-04-26T06:10:54.111Z,43.57
2019-04-26T06:14:04.075Z,38.97
2019-04-26T06:17:02.046Z,39.30
2019-04-26T06:19:41.821Z,34.03
2019-04-26T06:22:43.181Z,36.70
2019-04-26T06:25:27.772Z,32.93
2019-04-26T06:28:35.955Z,35.95
2019-04-26T06:31:29.870Z,44.90
2019-04-26T06:34:09.876Z,45.00
2019-04-26T06:37:10.960Z,43.48
2019-04-26T06:40:14.666Z,28.30
2019-04-26T06:43:12.745Z,41.63
2019-04-26T06:46:12.152Z,34.98
2019-04-26T06:49:12.575Z,40.75
2019-04-26T06:52:05.059Z,29.75
2019-04-26T06:55:04.266Z,33.25
2019-04-26T06:58:20.635Z,25.08
2019-04-26T07:01:09.495Z,21.27
2019-04-26T07:04:17.095Z,23.95
2019-04-26T07:07:13.325Z,28.85
2019-04-26T07:10:04.068Z,24.95
2019-04-26T07:12:54.436Z,30.32
2019-04-26T07:16:17.964Z,22.85
2019-04-26T07:18:51.446Z,20.62
2019-04-26T07:22:34.547Z,22.48
2019-04-26T07:25:56.921Z,27.90
2019-04-26T07:29:07.415Z,26.48
2019-04-26T07:31:53.625Z,20.27
2019-04-26T07:34:56.890Z,23.45
2019-04-26T07:38:14.090Z,26.42
2019-04-26T07:41:17.150Z,23.52
2019-04-26T07:44:20.215Z,20.68
2019-04-26T07:47:21.017Z,22.90
2019-04-26T07:50:25.135Z,19.80
2019-04-26T07:53:35.667Z,16.00
2019-04-26T07:56:36.355Z,14.78
2019-04-26T07:59:42.535Z,16.05
2019-04-26T08:02:32.235Z,25.32
2019-04-26T08:05:35.875Z,25.97
2019-04-26T08:08:11.419Z,20.37
2019-04-26T08:10:59.675Z,26.77
2019-04-26T08:13:34.835Z,32.23
2019-04-26T08:16:14.695Z,24.60
2019-04-26T08:18:53.724Z,28.57
2019-04-26T08:21:31.928Z,17.42
2019-04-26T08:24:08.295Z,24.07
2019-04-26T08:26:44.155Z,21.68
2019-04-26T08:29:20.036Z,21.02
2019-04-26T08:31:57.822Z,19.95
2019-04-26T08:34:33.842Z,21.00
2019-04-26T08:37:10.479Z,14.70
2019-04-26T08:39:49.447Z,20.27
2019-04-26T08:42:24.649Z,16.30
2019-04-26T08:45:04.704Z,22.30
2019-04-26T08:47:40.515Z,17.55
2019-04-26T08:50:33.230Z,13.55
2019-04-26T08:53:09.015Z,25.85
2019-04-26T08:55:43.496Z,29.37
2019-04-26T08:58:18.676Z,21.40
2019-04-26T09:01:01.215Z,23.50
2019-04-26T09:03:41.956Z,16.90
2019-04-26T09:06:20.895Z,30.70
2019-04-26T09:08:58.005Z,12.00
2019-04-26T09:11:33.972Z,27.17
2019-04-26T09:17:04.779Z,15.45
2019-04-26T09:19:37.215Z,24.77
2019-04-26T09:22:14.416Z,23.05
2019-04-26T09:24:49.316Z,17.75
2019-04-26T09:27:27.195Z,18.07
2019-04-26T09:30:11.210Z,19.70
2019-04-26T09:32:47.817Z,17.35
2019-04-26T09:35:24.240Z,26.82
2019-04-26T09:37:58.135Z,22.58
2019-04-26T09:40:30.935Z,18.82
2019-04-26T09:43:22.196Z,18.35
2019-04-26T09:45:56.275Z,20.95
2019-04-26T09:48:32.715Z,18.57
2019-04-26T09:51:07.555Z,11.80
2019-04-26T09:53:43.370Z,15.32
2019-04-26T09:56:14.460Z,24.82
2019-04-26T09:58:46.860Z,18.92
2019-04-26T10:01:24.027Z,20.10
2019-04-26T10:03:55.770Z,17.20
2019-04-26T10:06:30.762Z,20.30
2019-04-26T10:09:03.700Z,19.75
2019-04-26T10:11:39.538Z,26.68
2019-04-26T10:14:16.501Z,23.92
2019-04-26T10:17:01.060Z,15.40
2019-04-26T10:19:47.283Z,29.35
2019-04-26T10:22:19.621Z,23.52
2019-04-26T10:24:52.181Z,20.60
2019-04-26T10:27:24.800Z,19.57
2019-04-26T10:30:07.723Z,18.32
2019-04-26T10:32:32.631Z,24.32
2019-04-26T10:35:07.270Z,56.50
2019-04-26T10:37:43.889Z,17.67
2019-04-26T10:40:16.712Z,22.30
2019-04-26T10:42:49.170Z,26.68
2019-04-26T10:45:21.870Z,26.37
2019-04-26T10:47:54.392Z,23.22
2019-04-26T10:50:28.808Z,17.80
2019-04-26T10:53:02.350Z,14.30
2019-04-26T10:55:41.220Z,25.23
2019-04-26T10:58:19.374Z,24.75
2019-04-26T11:00:54.139Z,14.60
2019-04-26T11:03:28.050Z,14.68
2019-04-26T11:06:01.150Z,16.80
2019-04-26T11:08:33.591Z,16.45
2019-04-26T11:11:08.612Z,20.05
2019-04-26T11:13:41.110Z,14.75
2019-04-26T11:16:16.650Z,8.93
2019-04-26T11:18:49.090Z,9.58
2019-04-26T11:21:22.456Z,27.42
2019-04-26T11:23:54.790Z,30.12
2019-04-26T11:26:27.190Z,19.62
2019-04-26T11:28:59.470Z,23.32
2019-04-26T11:31:31.870Z,19.20
2019-04-26T11:34:05.415Z,20.35
2019-04-26T11:36:41.856Z,17.70
2019-04-26T11:39:13.920Z,17.95
2019-04-26T11:41:46.509Z,19.57
2019-04-26T11:44:27.458Z,19.45
2019-04-26T11:46:59.394Z,11.08
2019-04-26T11:49:33.350Z,17.00
2019-04-26T11:52:07.230Z,18.15
2019-04-26T11:54:39.530Z,22.75
2019-04-26T11:57:14.650Z,12.75
2019-04-26T11:59:47.250Z,17.10
2019-04-26T12:02:19.810Z,21.60
2019-04-26T12:05:06.113Z,19.95
2019-04-26T12:07:40.210Z,17.62
2019-04-26T12:10:13.611Z,15.15
2019-04-26T12:12:47.102Z,12.18
2019-04-26T12:15:30.202Z,22.45
2019-04-26T12:17:58.869Z,16.00
2019-04-26T12:20:31.410Z,17.37
2019-04-26T12:23:03.880Z,17.00
2019-04-26T12:25:38.852Z,13.85
2019-04-26T12:28:11.462Z,13.75
2019-04-26T12:30:45.031Z,22.55
2019-04-26T12:33:18.493Z,12.50
2019-04-26T12:35:56.883Z,12.07
2019-04-26T12:38:28.490Z,20.02
2019-04-26T12:41:00.131Z,11.55
2019-04-26T12:43:32.450Z,12.15
2019-04-26T12:46:22.721Z,14.40
2019-04-26T12:48:56.090Z,11.95
2019-04-26T12:51:28.750Z,16.25
2019-04-26T12:54:03.861Z,18.20
2019-04-26T12:56:37.460Z,16.23
2019-04-26T12:59:09.710Z,15.53
2019-04-26T13:01:42.593Z,18.45
2019-04-26T13:04:16.530Z,16.87
2019-04-26T13:07:02.321Z,11.55
2019-04-26T13:09:36.331Z,20.10
2019-04-26T13:12:11.490Z,9.60
2019-04-26T13:14:44.400Z,10.58
2019-04-26T13:17:21.190Z,19.23
2019-04-26T13:19:55.310Z,14.60
2019-04-26T13:22:27.910Z,8.15
2019-04-26T13:25:00.112Z,50.85
2019-04-26T13:27:32.590Z,20.72
2019-04-26T13:30:10.155Z,13.05
2019-04-26T13:32:40.714Z,15.45
2019-04-26T13:35:13.312Z,16.85
2019-04-26T13:37:45.990Z,19.92
2019-04-26T13:40:18.330Z,8.10
2019-04-26T13:42:51.364Z,23.85
2019-04-26T13:45:25.614Z,18.85
2019-04-26T13:48:15.610Z,18.90
2019-04-26T13:51:01.393Z,10.78
2019-04-26T13:53:32.870Z,13.53
2019-04-26T13:56:05.375Z,18.55
2019-04-26T13:58:37.673Z,15.15
2019-04-26T14:01:14.567Z,18.12
2019-04-26T14:03:45.410Z,14.53
2019-04-26T14:06:18.090Z,13.28
2019-04-26T14:08:54.017Z,10.65
2019-04-26T14:11:28.131Z,13.10
2019-04-26T14:14:01.674Z,21.62
2019-04-26T14:16:34.171Z,14.58
2019-04-26T14:19:14.641Z,15.20
2019-04-26T14:21:41.930Z,15.70
2019-04-26T14:24:19.766Z,10.15
2019-04-26T14:26:54.371Z,16.95
2019-04-26T14:29:28.438Z,9.63
2019-04-26T14:32:01.970Z,10.70
2019-04-26T14:34:36.213Z,16.52
2019-04-26T14:37:11.184Z,28.17
2019-04-26T14:39:50.115Z,19.67
2019-04-26T14:42:16.811Z,20.15
2019-04-26T14:44:49.940Z,15.55
2019-04-26T14:47:22.430Z,78.07
2019-04-26T14:49:57.780Z,16.45
2019-04-26T14:52:29.107Z,9.55
2019-04-26T14:55:01.545Z,16.10
2019-04-26T14:57:34.290Z,13.65
2019-04-26T15:00:09.350Z,14.28
2019-04-26T15:02:59.370Z,21.70
2019-04-26T15:05:38.183Z,14.45
2019-04-26T15:08:11.704Z,12.40
2019-04-26T15:10:48.839Z,12.13
2019-04-26T15:13:20.993Z,15.65
2019-04-26T15:15:53.890Z,12.05
2019-04-26T15:18:29.280Z,10.08
2019-04-26T15:21:00.550Z,13.10
2019-04-26T15:23:33.349Z,14.33
2019-04-26T15:26:06.245Z,21.12
2019-04-26T15:28:39.320Z,17.98
2019-04-26T15:31:13.084Z,18.05
2019-04-26T15:33:48.677Z,15.85
2019-04-26T15:36:20.260Z,19.57
2019-04-26T15:38:53.050Z,12.25
2019-04-26T15:41:30.310Z,17.00
2019-04-26T15:44:05.810Z,16.25
2019-04-26T15:46:44.125Z,24.23
2019-04-26T15:49:29.150Z,17.50
2019-04-26T15:52:01.621Z,20.80
2019-04-26T15:54:34.620Z,15.40
2019-04-26T15:57:07.388Z,13.65
2019-04-26T15:59:40.040Z,6.40
2019-04-26T16:02:12.860Z,22.22
2019-04-26T16:04:47.451Z,10.98
2019-04-26T16:07:27.410Z,15.28
2019-04-26T16:09:57.323Z,16.45
2019-04-26T16:12:28.975Z,14.83
2019-04-26T16:15:06.401Z,17.15
2019-04-26T16:17:40.150Z,9.33
2019-04-26T16:20:13.637Z,17.17
2019-04-26T16:22:49.016Z,21.30
2019-04-26T16:25:20.895Z,17.37
2019-04-26T16:28:12.636Z,26.73
2019-04-26T16:31:02.373Z,22.25
2019-04-26T16:33:36.950Z,24.07
2019-04-26T16:36:09.451Z,11.45
2019-04-26T16:38:42.365Z,22.32
2019-04-26T16:41:15.305Z,23.85
2019-04-26T16:43:53.038Z,41.25
2019-04-26T16:46:24.604Z,24.65
2019-04-26T16:49:02.296Z,36.70
2019-04-26T16:51:33.998Z,31.97
2019-04-26T16:54:10.226Z,36.45
2019-04-26T16:56:43.692Z,37.50
2019-04-26T16:59:22.671Z,39.63
2019-04-26T17:01:49.295Z,41.37
2019-04-26T17:04:29.072Z,30.30
2019-04-26T17:07:01.732Z,26.00
2019-04-26T17:09:52.270Z,41.73
2019-04-26T17:12:06.064Z,36.60
2019-04-26T17:14:40.675Z,32.20
2019-04-26T17:17:14.226Z,24.00
2019-04-26T17:19:47.050Z,22.27
2019-04-26T17:22:25.685Z,27.65
2019-04-26T17:25:03.042Z,18.50
2019-04-26T17:27:35.670Z,18.50
2019-04-26T17:30:10.669Z,17.70
2019-04-26T17:32:43.792Z,23.80
2019-04-26T17:35:16.690Z,26.17
2019-04-26T17:37:50.231Z,24.70
2019-04-26T17:40:25.200Z,81.12
2019-04-26T17:42:57.284Z,48.13
2019-04-26T17:45:30.637Z,71.12
2019-04-26T17:48:06.654Z,104.45
2019-04-26T17:50:38.981Z,77.60
2019-04-26T17:53:20.299Z,42.00
2019-04-26T17:55:52.928Z,35.55
2019-04-26T17:58:27.763Z,22.20
2019-04-26T18:00:56.410Z,64.30
2019-04-26T18:03:29.494Z,49.88
2019-04-26T18:06:02.140Z,54.70
2019-04-26T18:08:41.090Z,42.62
2019-04-26T18:11:18.872Z,71.28
2019-04-26T18:13:47.165Z,43.85
2019-04-26T18:16:22.408Z,74.60
2019-04-26T18:18:54.405Z,29.32
2019-04-26T18:21:29.154Z,34.70
2019-04-26T18:24:03.156Z,43.90
2019-04-26T18:26:35.930Z,35.08
2019-04-26T18:29:08.585Z,31.10
2019-04-26T18:31:41.306Z,39.92
2019-04-26T18:34:14.050Z,25.12
2019-04-26T18:36:46.871Z,155.05
2019-04-26T18:39:22.772Z,70.32
2019-04-26T18:41:58.269Z,30.08
2019-04-26T18:44:36.979Z,36.10
2019-04-26T18:47:25.660Z,25.72
2019-04-26T18:49:58.110Z,43.08
2019-04-26T18:52:32.965Z,37.45
2019-04-26T18:55:16.353Z,207.77
2019-04-26T18:57:55.167Z,178.42
2019-04-26T19:00:29.515Z,101.97
2019-04-26T19:03:02.491Z,58.92
2019-04-26T19:05:35.402Z,50.85
2019-04-26T19:08:09.968Z,80.92
2019-04-26T19:10:43.521Z,245.52
2019-04-26T19:13:32.113Z,92.08
2019-04-26T19:16:03.656Z,193.13
2019-04-26T19:18:42.433Z,248.55
2019-04-26T19:21:18.350Z,161.45
2019-04-26T19:23:51.897Z,73.67
2019-04-26T19:26:33.050Z,134.03
2019-04-26T19:28:59.925Z,116.33
2019-04-26T19:31:32.900Z,184.07
2019-04-26T19:34:05.564Z,88.80
2019-04-26T19:36:38.480Z,83.92
2019-04-26T19:39:12.086Z,126.33
2019-04-26T19:41:46.395Z,153.72
2019-04-26T19:44:22.142Z,119.40
2019-04-26T19:46:58.047Z,101.22
2019-04-26T19:49:41.535Z,68.00
2019-04-26T19:52:33.671Z,82.62
2019-04-26T19:55:24.788Z,68.07
2019-04-26T19:57:57.285Z,83.85
2019-04-26T20:00:32.031Z,89.97
2019-04-26T20:03:08.378Z,84.45
2019-04-26T20:05:40.643Z,61.50
2019-04-26T20:08:13.714Z,72.12
2019-04-26T20:10:46.292Z,59.38
2019-04-26T20:13:18.989Z,35.33
2019-04-26T20:15:53.115Z,47.40
2019-04-26T20:18:27.164Z,30.37
2019-04-26T20:21:00.020Z,60.75
2019-04-26T20:23:33.819Z,55.28
2019-04-26T20:26:07.308Z,43.87
2019-04-26T20:28:42.296Z,47.10
2019-04-26T20:31:16.820Z,36.95
2019-04-26T20:33:49.666Z,44.75
2019-04-26T20:36:22.235Z,45.25
2019-04-26T20:38:55.170Z,42.38
2019-04-26T20:41:27.989Z,39.90
2019-04-26T20:44:07.354Z,38.40
2019-04-26T20:46:37.750Z,41.77
2019-04-26T20:49:09.302Z,42.43
2019-04-26T20:51:46.108Z,47.43
2019-04-26T20:54:17.441Z,47.88
2019-04-26T20:56:52.634Z,44.13
2019-04-26T20:59:24.491Z,47.58
2019-04-26T21:02:03.949Z,40.58
2019-04-26T21:04:37.946Z,46.92
2019-04-26T21:07:06.654Z,39.05
2019-04-26T21:09:42.602Z,45.40
2019-04-26T21:12:17.644Z,41.05
2019-04-26T21:14:48.965Z,37.83
2019-04-26T21:17:25.973Z,42.13
2019-04-26T21:19:58.546Z,44.13
2019-04-26T21:22:31.721Z,38.13
2019-04-26T21:25:11.689Z,44.30
2019-04-26T21:27:51.920Z,45.75
2019-04-26T21:30:33.580Z,46.55
2019-04-26T21:33:17.310Z,57.55
2019-04-26T21:35:50.830Z,49.77
2019-04-26T21:38:41.325Z,51.83
2019-04-26T21:41:15.647Z,46.33
2019-04-26T21:43:48.250Z,46.73
2019-04-26T21:46:22.865Z,45.23
2019-04-26T21:48:55.562Z,43.20
2019-04-26T21:51:28.221Z,29.23
2019-04-26T21:54:01.034Z,38.75
2019-04-26T21:56:34.090Z,30.80
2019-04-26T21:59:06.905Z,35.90
2019-04-26T22:01:39.860Z,32.88
2019-04-26T22:04:13.800Z,28.73
2019-04-26T22:06:47.875Z,40.40
2019-04-26T22:09:34.962Z,34.50
2019-04-26T22:12:05.530Z,29.75
2019-04-26T22:14:43.996Z,38.88
2019-04-26T22:17:18.905Z,48.02
2019-04-26T22:19:53.478Z,31.62
2019-04-26T22:22:27.907Z,39.63
2019-04-26T22:25:05.468Z,31.23
2019-04-26T22:27:38.230Z,37.07
2019-04-26T22:30:13.302Z,36.28
2019-04-26T22:32:48.513Z,32.15
2019-04-26T22:35:21.670Z,35.83
2019-04-26T22:37:54.420Z,27.82
2019-04-26T22:40:27.130Z,31.77
2019-04-26T22:43:20.170Z,36.03
2019-04-26T22:45:56.550Z,38.20
2019-04-26T22:48:36.397Z,32.23
2019-04-26T22:51:09.010Z,35.17
2019-04-26T22:53:43.301Z,36.23
2019-04-26T22:56:16.161Z,26.37
2019-04-26T22:58:49.260Z,26.75
2019-04-26T23:01:21.932Z,27.25
2019-04-26T23:03:54.916Z,17.23
2019-04-26T23:06:27.970Z,13.72
2019-04-26T23:09:01.290Z,18.90
2019-04-26T23:11:35.405Z,16.42
2019-04-26T23:14:19.149Z,11.63
2019-04-26T23:17:09.639Z,8.20
2019-04-26T23:19:54.194Z,12.88
2019-04-26T23:22:30.775Z,17.37
2019-04-26T23:24:58.845Z,16.85
2019-04-26T23:27:33.255Z,16.05
2019-04-26T23:30:07.380Z,21.80
2019-04-26T23:32:39.855Z,10.43
2019-04-26T23:35:13.724Z,15.60
2019-04-26T23:37:46.240Z,9.88
2019-04-26T23:40:20.694Z,8.45
2019-04-26T23:42:54.377Z,17.48
2019-04-26T23:45:27.305Z,16.55
2019-04-26T23:48:00.040Z,15.58
2019-04-26T23:50:34.093Z,25.48
2019-04-26T23:53:06.775Z,26.23
2019-04-26T23:55:42.493Z,20.30
2019-04-26T23:58:13.955Z,54.13
